sensor_id;sensor_type;location;lat;lon;timestamp;temperature;humidity
69543;SHT31;56762;49.494;11.768;2023-02-28T00:01:07;-1.82;76.61
69543;SHT31;56762;49.494;11.768;2023-02-28T00:03:35;-1.81;76.73
69543;SHT31;56762;49.494;11.768;2023-02-28T00:06:06;-1.79;76.40
69543;SHT31;56762;49.494;11.768;2023-02-28T00:08:34;-1.81;76.20
69543;SHT31;56762;49.494;11.768;2023-02-28T00:11:02;-1.92;75.99
69543;SHT31;56762;49.494;11.768;2023-02-28T00:13:30;-1.87;76.71
69543;SHT31;56762;49.494;11.768;2023-02-28T00:16:00;-1.85;76.60
69543;SHT31;56762;49.494;11.768;2023-02-28T00:18:28;-1.85;76.30
69543;SHT31;56762;49.494;11.768;2023-02-28T00:20:57;-1.87;76.08
69543;SHT31;56762;49.494;11.768;2023-02-28T00:23:27;-1.97;76.87
69543;SHT31;56762;49.494;11.768;2023-02-28T00:25:55;-1.92;76.86
69543;SHT31;56762;49.494;11.768;2023-02-28T00:28:24;-1.89;76.70
69543;SHT31;56762;49.494;11.768;2023-02-28T00:30:52;-1.90;76.30
69543;SHT31;56762;49.494;11.768;2023-02-28T00:33:21;-1.89;76.50
69543;SHT31;56762;49.494;11.768;2023-02-28T00:35:49;-1.86;76.45
69543;SHT31;56762;49.494;11.768;2023-02-28T00:38:16;-1.90;76.51
69543;SHT31;56762;49.494;11.768;2023-02-28T00:40:46;-1.97;76.50
69543;SHT31;56762;49.494;11.768;2023-02-28T00:43:14;-2.02;76.84
69543;SHT31;56762;49.494;11.768;2023-02-28T00:45:42;-1.97;77.35
69543;SHT31;56762;49.494;11.768;2023-02-28T00:48:10;-1.99;77.30
69543;SHT31;56762;49.494;11.768;2023-02-28T00:50:38;-1.96;76.89
69543;SHT31;56762;49.494;11.768;2023-02-28T00:53:06;-1.97;76.80
69543;SHT31;56762;49.494;11.768;2023-02-28T00:55:34;-2.00;77.10
69543;SHT31;56762;49.494;11.768;2023-02-28T00:58:04;-1.93;76.95
69543;SHT31;56762;49.494;11.768;2023-02-28T01:00:32;-1.90;76.84
69543;SHT31;56762;49.494;11.768;2023-02-28T01:03:00;-1.92;77.07
69543;SHT31;56762;49.494;11.768;2023-02-28T01:05:28;-1.96;77.22
69543;SHT31;56762;49.494;11.768;2023-02-28T01:07:56;-2.02;77.12
69543;SHT31;56762;49.494;11.768;2023-02-28T01:10:24;-1.95;77.22
69543;SHT31;56762;49.494;11.768;2023-02-28T01:12:53;-1.95;77.51
69543;SHT31;56762;49.494;11.768;2023-02-28T01:15:22;-1.89;77.11
69543;SHT31;56762;49.494;11.768;2023-02-28T01:17:50;-1.95;77.47
69543;SHT31;56762;49.494;11.768;2023-02-28T01:20:19;-1.99;77.81
69543;SHT31;56762;49.494;11.768;2023-02-28T01:22:47;-2.03;77.64
69543;SHT31;56762;49.494;11.768;2023-02-28T01:25:15;-2.03;77.85
69543;SHT31;56762;49.494;11.768;2023-02-28T01:27:43;-2.07;77.86
69543;SHT31;56762;49.494;11.768;2023-02-28T01:30:12;-2.05;78.30
69543;SHT31;56762;49.494;11.768;2023-02-28T01:32:42;-2.07;78.21
69543;SHT31;56762;49.494;11.768;2023-02-28T01:35:10;-2.10;78.48
69543;SHT31;56762;49.494;11.768;2023-02-28T01:37:38;-2.13;78.14
69543;SHT31;56762;49.494;11.768;2023-02-28T01:40:07;-2.09;78.13
69543;SHT31;56762;49.494;11.768;2023-02-28T01:42:36;-2.11;77.60
69543;SHT31;56762;49.494;11.768;2023-02-28T01:45:17;-2.14;78.06
69543;SHT31;56762;49.494;11.768;2023-02-28T01:47:50;-2.19;77.83
69543;SHT31;56762;49.494;11.768;2023-02-28T01:50:23;-2.13;77.95
69543;SHT31;56762;49.494;11.768;2023-02-28T01:52:54;-2.06;77.76
69543;SHT31;56762;49.494;11.768;2023-02-28T01:55:24;-2.10;77.72
69543;SHT31;56762;49.494;11.768;2023-02-28T01:57:57;-2.10;77.47
69543;SHT31;56762;49.494;11.768;2023-02-28T02:00:26;-2.13;77.87
69543;SHT31;56762;49.494;11.768;2023-02-28T02:02:58;-2.17;78.12
69543;SHT31;56762;49.494;11.768;2023-02-28T02:05:29;-2.22;78.55
69543;SHT31;56762;49.494;11.768;2023-02-28T02:08:03;-2.26;78.05
69543;SHT31;56762;49.494;11.768;2023-02-28T02:10:35;-2.23;77.74
69543;SHT31;56762;49.494;11.768;2023-02-28T02:13:21;-2.16;78.14
69543;SHT31;56762;49.494;11.768;2023-02-28T02:15:59;-2.14;77.97
69543;SHT31;56762;49.494;11.768;2023-02-28T02:18:36;-2.26;77.89
69543;SHT31;56762;49.494;11.768;2023-02-28T02:21:29;-2.34;78.11
69543;SHT31;56762;49.494;11.768;2023-02-28T02:24:28;-2.34;78.51
69543;SHT31;56762;49.494;11.768;2023-02-28T02:27:08;-2.40;78.73
69543;SHT31;56762;49.494;11.768;2023-02-28T02:36:17;-2.41;79.07
69543;SHT31;56762;49.494;11.768;2023-02-28T02:38:53;-2.44;79.08
69543;SHT31;56762;49.494;11.768;2023-02-28T02:41:28;-2.50;79.26
69543;SHT31;56762;49.494;11.768;2023-02-28T02:44:02;-2.51;79.44
69543;SHT31;56762;49.494;11.768;2023-02-28T02:46:33;-2.54;79.66
69543;SHT31;56762;49.494;11.768;2023-02-28T02:49:05;-2.57;79.58
69543;SHT31;56762;49.494;11.768;2023-02-28T02:51:36;-2.53;79.44
69543;SHT31;56762;49.494;11.768;2023-02-28T02:54:08;-2.58;79.56
69543;SHT31;56762;49.494;11.768;2023-02-28T02:56:39;-2.67;79.65
69543;SHT31;56762;49.494;11.768;2023-02-28T02:59:12;-2.71;79.93
69543;SHT31;56762;49.494;11.768;2023-02-28T03:01:41;-2.78;80.01
69543;SHT31;56762;49.494;11.768;2023-02-28T03:04:12;-2.78;80.45
69543;SHT31;56762;49.494;11.768;2023-02-28T03:06:43;-2.68;80.30
69543;SHT31;56762;49.494;11.768;2023-02-28T03:09:11;-2.75;80.04
69543;SHT31;56762;49.494;11.768;2023-02-28T03:11:40;-2.81;80.07
69543;SHT31;56762;49.494;11.768;2023-02-28T03:14:20;-2.84;80.65
69543;SHT31;56762;49.494;11.768;2023-02-28T03:17:19;-2.89;80.52
69543;SHT31;56762;49.494;11.768;2023-02-28T03:19:55;-2.91;80.31
69543;SHT31;56762;49.494;11.768;2023-02-28T03:22:43;-2.92;80.69
69543;SHT31;56762;49.494;11.768;2023-02-28T03:25:20;-2.93;80.77
69543;SHT31;56762;49.494;11.768;2023-02-28T03:27:58;-2.98;81.15
69543;SHT31;56762;49.494;11.768;2023-02-28T03:30:35;-2.93;81.03
69543;SHT31;56762;49.494;11.768;2023-02-28T03:33:07;-2.98;81.02
69543;SHT31;56762;49.494;11.768;2023-02-28T03:35:39;-3.00;81.29
69543;SHT31;56762;49.494;11.768;2023-02-28T03:38:14;-3.06;81.05
69543;SHT31;56762;49.494;11.768;2023-02-28T03:40:47;-3.12;81.66
69543;SHT31;56762;49.494;11.768;2023-02-28T03:43:22;-3.12;81.46
69543;SHT31;56762;49.494;11.768;2023-02-28T03:45:51;-3.15;81.85
69543;SHT31;56762;49.494;11.768;2023-02-28T03:48:23;-3.13;82.14
69543;SHT31;56762;49.494;11.768;2023-02-28T03:50:55;-3.10;81.97
69543;SHT31;56762;49.494;11.768;2023-02-28T03:53:29;-3.06;82.02
69543;SHT31;56762;49.494;11.768;2023-02-28T03:56:05;-2.95;81.89
69543;SHT31;56762;49.494;11.768;2023-02-28T03:58:37;-2.99;81.97
69543;SHT31;56762;49.494;11.768;2023-02-28T04:01:09;-3.00;82.06
69543;SHT31;56762;49.494;11.768;2023-02-28T04:03:39;-2.93;82.03
69543;SHT31;56762;49.494;11.768;2023-02-28T04:06:12;-2.91;81.95
69543;SHT31;56762;49.494;11.768;2023-02-28T04:08:44;-2.93;81.53
69543;SHT31;56762;49.494;11.768;2023-02-28T04:11:19;-2.96;81.70
69543;SHT31;56762;49.494;11.768;2023-02-28T04:13:48;-2.92;81.82
69543;SHT31;56762;49.494;11.768;2023-02-28T04:16:16;-2.88;81.75
69543;SHT31;56762;49.494;11.768;2023-02-28T04:19:00;-2.92;81.21
69543;SHT31;56762;49.494;11.768;2023-02-28T04:21:33;-2.88;81.45
69543;SHT31;56762;49.494;11.768;2023-02-28T04:24:03;-2.91;81.46
69543;SHT31;56762;49.494;11.768;2023-02-28T04:26:32;-2.85;81.31
69543;SHT31;56762;49.494;11.768;2023-02-28T04:29:01;-2.84;81.54
69543;SHT31;56762;49.494;11.768;2023-02-28T04:31:30;-2.89;80.77
69543;SHT31;56762;49.494;11.768;2023-02-28T04:34:00;-2.92;81.06
69543;SHT31;56762;49.494;11.768;2023-02-28T04:36:28;-2.89;81.44
69543;SHT31;56762;49.494;11.768;2023-02-28T04:38:56;-2.82;81.38
69543;SHT31;56762;49.494;11.768;2023-02-28T04:41:26;-2.77;81.23
69543;SHT31;56762;49.494;11.768;2023-02-28T04:43:57;-2.69;80.68
69543;SHT31;56762;49.494;11.768;2023-02-28T04:46:26;-2.64;80.87
69543;SHT31;56762;49.494;11.768;2023-02-28T04:48:54;-2.51;80.33
69543;SHT31;56762;49.494;11.768;2023-02-28T04:51:22;-2.56;80.58
69543;SHT31;56762;49.494;11.768;2023-02-28T04:53:50;-2.46;81.01
69543;SHT31;56762;49.494;11.768;2023-02-28T04:56:18;-2.46;80.23
69543;SHT31;56762;49.494;11.768;2023-02-28T04:58:48;-2.44;80.57
69543;SHT31;56762;49.494;11.768;2023-02-28T05:01:20;-2.41;80.31
69543;SHT31;56762;49.494;11.768;2023-02-28T05:03:50;-2.32;80.20
69543;SHT31;56762;49.494;11.768;2023-02-28T05:06:19;-2.34;79.54
69543;SHT31;56762;49.494;11.768;2023-02-28T05:08:47;-2.44;79.96
69543;SHT31;56762;49.494;11.768;2023-02-28T05:11:18;-2.40;79.71
69543;SHT31;56762;49.494;11.768;2023-02-28T05:13:49;-2.40;80.06
69543;SHT31;56762;49.494;11.768;2023-02-28T05:16:18;-2.43;79.98
69543;SHT31;56762;49.494;11.768;2023-02-28T05:18:46;-2.44;80.21
69543;SHT31;56762;49.494;11.768;2023-02-28T05:21:23;-2.33;79.43
69543;SHT31;56762;49.494;11.768;2023-02-28T05:23:53;-2.33;79.14
69543;SHT31;56762;49.494;11.768;2023-02-28T05:26:21;-2.32;79.61
69543;SHT31;56762;49.494;11.768;2023-02-28T05:28:51;-2.36;79.10
69543;SHT31;56762;49.494;11.768;2023-02-28T05:31:19;-2.38;79.34
69543;SHT31;56762;49.494;11.768;2023-02-28T05:33:47;-2.46;79.31
69543;SHT31;56762;49.494;11.768;2023-02-28T05:36:16;-2.48;79.52
69543;SHT31;56762;49.494;11.768;2023-02-28T05:38:46;-2.56;79.64
69543;SHT31;56762;49.494;11.768;2023-02-28T05:41:14;-2.53;79.72
69543;SHT31;56762;49.494;11.768;2023-02-28T05:43:42;-2.50;79.68
69543;SHT31;56762;49.494;11.768;2023-02-28T05:46:12;-2.53;79.40
69543;SHT31;56762;49.494;11.768;2023-02-28T05:48:42;-2.54;79.29
69543;SHT31;56762;49.494;11.768;2023-02-28T05:51:11;-2.53;79.45
69543;SHT31;56762;49.494;11.768;2023-02-28T05:53:39;-2.46;79.90
69543;SHT31;56762;49.494;11.768;2023-02-28T05:56:34;-2.44;78.95
69543;SHT31;56762;49.494;11.768;2023-02-28T05:59:51;-2.51;79.16
69543;SHT31;56762;49.494;11.768;2023-02-28T06:02:31;-2.58;79.15
69543;SHT31;56762;49.494;11.768;2023-02-28T06:05:46;-2.61;79.20
69543;SHT31;56762;49.494;11.768;2023-02-28T06:08:36;-2.58;79.38
69543;SHT31;56762;49.494;11.768;2023-02-28T06:11:04;-2.56;79.44
69543;SHT31;56762;49.494;11.768;2023-02-28T06:13:33;-2.47;79.01
69543;SHT31;56762;49.494;11.768;2023-02-28T06:16:02;-2.50;78.58
69543;SHT31;56762;49.494;11.768;2023-02-28T06:18:32;-2.48;78.79
69543;SHT31;56762;49.494;11.768;2023-02-28T06:21:00;-2.43;78.96
69543;SHT31;56762;49.494;11.768;2023-02-28T06:23:28;-2.43;78.11
69543;SHT31;56762;49.494;11.768;2023-02-28T06:25:59;-2.41;78.51
69543;SHT31;56762;49.494;11.768;2023-02-28T06:28:32;-2.38;78.75
69543;SHT31;56762;49.494;11.768;2023-02-28T06:31:05;-2.36;78.33
69543;SHT31;56762;49.494;11.768;2023-02-28T06:33:37;-2.30;78.26
69543;SHT31;56762;49.494;11.768;2023-02-28T06:36:09;-2.19;78.01
69543;SHT31;56762;49.494;11.768;2023-02-28T06:38:39;-2.10;77.78
69543;SHT31;56762;49.494;11.768;2023-02-28T06:41:08;-2.09;77.83
69543;SHT31;56762;49.494;11.768;2023-02-28T06:43:39;-2.07;77.85
69543;SHT31;56762;49.494;11.768;2023-02-28T06:46:11;-2.03;77.91
69543;SHT31;56762;49.494;11.768;2023-02-28T06:48:42;-2.02;77.56
69543;SHT31;56762;49.494;11.768;2023-02-28T06:51:13;-2.02;77.28
69543;SHT31;56762;49.494;11.768;2023-02-28T06:53:42;-1.95;77.31
69543;SHT31;56762;49.494;11.768;2023-02-28T06:56:13;-1.92;77.36
69543;SHT31;56762;49.494;11.768;2023-02-28T06:58:48;-1.86;77.23
69543;SHT31;56762;49.494;11.768;2023-02-28T07:01:17;-1.75;77.83
69543;SHT31;56762;49.494;11.768;2023-02-28T07:03:47;-1.68;77.12
69543;SHT31;56762;49.494;11.768;2023-02-28T07:06:19;-1.64;76.72
69543;SHT31;56762;49.494;11.768;2023-02-28T07:08:47;-1.56;76.51
69543;SHT31;56762;49.494;11.768;2023-02-28T07:11:16;-1.52;76.53
69543;SHT31;56762;49.494;11.768;2023-02-28T07:13:47;-1.40;76.79
69543;SHT31;56762;49.494;11.768;2023-02-28T07:16:15;-1.31;76.71
69543;SHT31;56762;49.494;11.768;2023-02-28T07:18:43;-1.23;76.13
69543;SHT31;56762;49.494;11.768;2023-02-28T07:21:13;-1.27;75.23
69543;SHT31;56762;49.494;11.768;2023-02-28T07:23:41;-1.24;76.11
69543;SHT31;56762;49.494;11.768;2023-02-28T07:26:12;-1.20;75.93
69543;SHT31;56762;49.494;11.768;2023-02-28T07:28:41;-1.15;75.96
69543;SHT31;56762;49.494;11.768;2023-02-28T07:31:10;-1.15;76.33
69543;SHT31;56762;49.494;11.768;2023-02-28T07:33:41;-1.14;75.14
69543;SHT31;56762;49.494;11.768;2023-02-28T07:36:14;-1.06;75.52
69543;SHT31;56762;49.494;11.768;2023-02-28T07:38:44;-0.89;74.86
69543;SHT31;56762;49.494;11.768;2023-02-28T07:41:15;-0.80;75.01
69543;SHT31;56762;49.494;11.768;2023-02-28T07:43:42;-0.84;75.40
69543;SHT31;56762;49.494;11.768;2023-02-28T07:46:12;-0.73;74.64
69543;SHT31;56762;49.494;11.768;2023-02-28T07:48:41;-0.63;73.79
69543;SHT31;56762;49.494;11.768;2023-02-28T07:51:10;-0.56;74.64
69543;SHT31;56762;49.494;11.768;2023-02-28T07:53:39;-0.55;73.15
69543;SHT31;56762;49.494;11.768;2023-02-28T07:56:07;-0.49;72.68
69543;SHT31;56762;49.494;11.768;2023-02-28T07:58:37;-0.42;73.13
69543;SHT31;56762;49.494;11.768;2023-02-28T08:01:06;-0.35;73.08
69543;SHT31;56762;49.494;11.768;2023-02-28T08:03:34;-0.32;72.88
69543;SHT31;56762;49.494;11.768;2023-02-28T08:06:02;-0.19;71.87
69543;SHT31;56762;49.494;11.768;2023-02-28T08:08:31;-0.13;71.60
69543;SHT31;56762;49.494;11.768;2023-02-28T08:11:01;-0.01;70.02
69543;SHT31;56762;49.494;11.768;2023-02-28T08:13:30;-0.11;69.43
69543;SHT31;56762;49.494;11.768;2023-02-28T08:16:01;-0.08;69.34
69543;SHT31;56762;49.494;11.768;2023-02-28T08:18:29;-0.05;69.52
69543;SHT31;56762;49.494;11.768;2023-02-28T08:20:57;-0.01;69.00
69543;SHT31;56762;49.494;11.768;2023-02-28T08:23:25;0.00;67.61
69543;SHT31;56762;49.494;11.768;2023-02-28T08:25:54;0.03;67.97
69543;SHT31;56762;49.494;11.768;2023-02-28T08:28:23;0.02;68.20
69543;SHT31;56762;49.494;11.768;2023-02-28T08:30:53;0.10;67.51
69543;SHT31;56762;49.494;11.768;2023-02-28T08:33:21;0.16;66.89
69543;SHT31;56762;49.494;11.768;2023-02-28T08:35:52;0.26;66.31
69543;SHT31;56762;49.494;11.768;2023-02-28T08:38:20;0.31;67.21
69543;SHT31;56762;49.494;11.768;2023-02-28T08:40:48;0.40;65.59
69543;SHT31;56762;49.494;11.768;2023-02-28T08:43:16;0.41;66.64
69543;SHT31;56762;49.494;11.768;2023-02-28T08:45:45;0.48;65.61
69543;SHT31;56762;49.494;11.768;2023-02-28T08:48:13;0.61;64.36
69543;SHT31;56762;49.494;11.768;2023-02-28T08:50:44;0.67;63.90
69543;SHT31;56762;49.494;11.768;2023-02-28T08:53:30;0.56;64.25
69543;SHT31;56762;49.494;11.768;2023-02-28T08:56:00;0.50;64.13
69543;SHT31;56762;49.494;11.768;2023-02-28T08:58:29;0.53;64.64
69543;SHT31;56762;49.494;11.768;2023-02-28T09:00:58;0.46;64.27
69543;SHT31;56762;49.494;11.768;2023-02-28T09:03:26;0.47;63.73
69543;SHT31;56762;49.494;11.768;2023-02-28T09:05:56;0.60;63.95
69543;SHT31;56762;49.494;11.768;2023-02-28T09:08:26;0.67;63.99
69543;SHT31;56762;49.494;11.768;2023-02-28T09:10:54;0.61;62.99
69543;SHT31;56762;49.494;11.768;2023-02-28T09:13:25;0.65;63.53
69543;SHT31;56762;49.494;11.768;2023-02-28T09:15:54;0.71;62.20
69543;SHT31;56762;49.494;11.768;2023-02-28T09:18:26;0.75;62.30
69543;SHT31;56762;49.494;11.768;2023-02-28T09:20:55;0.74;62.90
69543;SHT31;56762;49.494;11.768;2023-02-28T09:23:22;0.82;62.95
69543;SHT31;56762;49.494;11.768;2023-02-28T09:25:53;0.92;62.55
69543;SHT31;56762;49.494;11.768;2023-02-28T09:28:21;0.96;62.10
69543;SHT31;56762;49.494;11.768;2023-02-28T09:30:52;1.08;62.46
69543;SHT31;56762;49.494;11.768;2023-02-28T09:33:21;0.99;62.11
69543;SHT31;56762;49.494;11.768;2023-02-28T09:35:58;1.02;61.67
69543;SHT31;56762;49.494;11.768;2023-02-28T09:38:26;1.10;62.93
69543;SHT31;56762;49.494;11.768;2023-02-28T09:40:56;1.08;62.37
69543;SHT31;56762;49.494;11.768;2023-02-28T09:43:26;1.10;61.54
69543;SHT31;56762;49.494;11.768;2023-02-28T09:45:59;1.08;61.52
69543;SHT31;56762;49.494;11.768;2023-02-28T09:48:32;1.08;61.51
69543;SHT31;56762;49.494;11.768;2023-02-28T09:51:05;1.18;61.98
69543;SHT31;56762;49.494;11.768;2023-02-28T09:53:37;1.19;61.55
69543;SHT31;56762;49.494;11.768;2023-02-28T09:56:21;1.29;62.08
69543;SHT31;56762;49.494;11.768;2023-02-28T09:58:55;1.43;61.91
69543;SHT31;56762;49.494;11.768;2023-02-28T10:01:27;1.49;61.69
69543;SHT31;56762;49.494;11.768;2023-02-28T10:04:00;1.54;60.23
69543;SHT31;56762;49.494;11.768;2023-02-28T10:06:39;1.60;60.25
69543;SHT31;56762;49.494;11.768;2023-02-28T10:09:12;1.75;60.43
69543;SHT31;56762;49.494;11.768;2023-02-28T10:11:41;1.68;59.03
69543;SHT31;56762;49.494;11.768;2023-02-28T10:14:13;1.82;59.99
69543;SHT31;56762;49.494;11.768;2023-02-28T10:16:44;1.91;58.22
69543;SHT31;56762;49.494;11.768;2023-02-28T10:19:20;1.91;58.63
69543;SHT31;56762;49.494;11.768;2023-02-28T10:21:55;1.91;58.86
69543;SHT31;56762;49.494;11.768;2023-02-28T10:24:30;1.97;58.84
69543;SHT31;56762;49.494;11.768;2023-02-28T10:27:01;2.07;59.50
69543;SHT31;56762;49.494;11.768;2023-02-28T10:29:32;2.08;58.73
69543;SHT31;56762;49.494;11.768;2023-02-28T10:32:02;2.11;58.64
69543;SHT31;56762;49.494;11.768;2023-02-28T10:34:31;2.05;58.27
69543;SHT31;56762;49.494;11.768;2023-02-28T10:37:01;2.07;58.87
69543;SHT31;56762;49.494;11.768;2023-02-28T10:39:35;2.08;57.94
69543;SHT31;56762;49.494;11.768;2023-02-28T10:42:04;2.25;58.20
69543;SHT31;56762;49.494;11.768;2023-02-28T10:44:33;2.30;57.83
69543;SHT31;56762;49.494;11.768;2023-02-28T10:47:01;2.28;56.61
69543;SHT31;56762;49.494;11.768;2023-02-28T10:49:29;2.35;57.64
69543;SHT31;56762;49.494;11.768;2023-02-28T10:51:58;2.30;57.23
69543;SHT31;56762;49.494;11.768;2023-02-28T10:54:30;2.45;57.54
69543;SHT31;56762;49.494;11.768;2023-02-28T10:57:06;2.43;57.56
69543;SHT31;56762;49.494;11.768;2023-02-28T10:59:35;2.42;57.98
69543;SHT31;56762;49.494;11.768;2023-02-28T11:02:31;2.50;57.83
69543;SHT31;56762;49.494;11.768;2023-02-28T11:05:26;2.64;57.34
69543;SHT31;56762;49.494;11.768;2023-02-28T11:07:57;2.76;57.71
69543;SHT31;56762;49.494;11.768;2023-02-28T11:10:30;2.76;57.58
69543;SHT31;56762;49.494;11.768;2023-02-28T11:13:02;2.81;56.68
69543;SHT31;56762;49.494;11.768;2023-02-28T11:15:32;2.80;57.43
69543;SHT31;56762;49.494;11.768;2023-02-28T11:18:01;2.80;56.86
69543;SHT31;56762;49.494;11.768;2023-02-28T11:20:32;2.64;56.25
69543;SHT31;56762;49.494;11.768;2023-02-28T11:23:02;2.67;58.27
69543;SHT31;56762;49.494;11.768;2023-02-28T11:25:33;2.63;56.30
69543;SHT31;56762;49.494;11.768;2023-02-28T11:28:03;2.69;57.17
69543;SHT31;56762;49.494;11.768;2023-02-28T11:30:35;2.50;56.68
69543;SHT31;56762;49.494;11.768;2023-02-28T11:33:21;2.52;57.53
69543;SHT31;56762;49.494;11.768;2023-02-28T11:35:50;2.50;57.90
69543;SHT31;56762;49.494;11.768;2023-02-28T11:38:19;2.49;57.19
69543;SHT31;56762;49.494;11.768;2023-02-28T11:41:00;2.45;56.97
69543;SHT31;56762;49.494;11.768;2023-02-28T11:43:39;2.39;56.79
69543;SHT31;56762;49.494;11.768;2023-02-28T11:46:20;2.56;57.62
69543;SHT31;56762;49.494;11.768;2023-02-28T11:48:58;2.54;57.67
69543;SHT31;56762;49.494;11.768;2023-02-28T11:51:34;2.49;57.57
69543;SHT31;56762;49.494;11.768;2023-02-28T11:54:21;2.60;57.10
69543;SHT31;56762;49.494;11.768;2023-02-28T11:56:55;2.56;57.78
69543;SHT31;56762;49.494;11.768;2023-02-28T11:59:46;2.63;57.48
69543;SHT31;56762;49.494;11.768;2023-02-28T12:02:28;2.45;58.15
69543;SHT31;56762;49.494;11.768;2023-02-28T12:05:10;2.43;58.39
69543;SHT31;56762;49.494;11.768;2023-02-28T12:07:47;2.52;58.23
69543;SHT31;56762;49.494;11.768;2023-02-28T12:10:21;2.57;58.05
69543;SHT31;56762;49.494;11.768;2023-02-28T12:13:00;2.66;57.97
69543;SHT31;56762;49.494;11.768;2023-02-28T12:15:42;2.69;58.50
69543;SHT31;56762;49.494;11.768;2023-02-28T12:18:22;2.80;58.27
69543;SHT31;56762;49.494;11.768;2023-02-28T12:20:55;2.76;57.58
69543;SHT31;56762;49.494;11.768;2023-02-28T12:23:51;2.67;58.27
69543;SHT31;56762;49.494;11.768;2023-02-28T12:26:31;2.67;57.78
69543;SHT31;56762;49.494;11.768;2023-02-28T12:29:13;2.75;58.40
69543;SHT31;56762;49.494;11.768;2023-02-28T12:31:49;2.66;58.50
69543;SHT31;56762;49.494;11.768;2023-02-28T12:34:22;2.67;58.95
69543;SHT31;56762;49.494;11.768;2023-02-28T12:36:53;2.76;58.20
69543;SHT31;56762;49.494;11.768;2023-02-28T12:39:27;2.63;58.83
69543;SHT31;56762;49.494;11.768;2023-02-28T12:42:12;2.59;58.86
69543;SHT31;56762;49.494;11.768;2023-02-28T12:44:44;2.67;59.87
69543;SHT31;56762;49.494;11.768;2023-02-28T12:47:15;2.59;58.75
69543;SHT31;56762;49.494;11.768;2023-02-28T12:49:46;2.60;58.54
69543;SHT31;56762;49.494;11.768;2023-02-28T12:52:22;2.70;58.22
69543;SHT31;56762;49.494;11.768;2023-02-28T12:54:54;2.72;57.85
69543;SHT31;56762;49.494;11.768;2023-02-28T12:57:28;2.84;59.21
69543;SHT31;56762;49.494;11.768;2023-02-28T13:00:04;2.91;57.76
69543;SHT31;56762;49.494;11.768;2023-02-28T13:02:58;3.00;57.97
69543;SHT31;56762;49.494;11.768;2023-02-28T13:05:53;3.08;58.34
69543;SHT31;56762;49.494;11.768;2023-02-28T13:08:41;3.15;57.20
69543;SHT31;56762;49.494;11.768;2023-02-28T13:11:33;3.20;56.12
69543;SHT31;56762;49.494;11.768;2023-02-28T13:14:15;3.24;57.30
69543;SHT31;56762;49.494;11.768;2023-02-28T13:16:53;3.31;57.20
69543;SHT31;56762;49.494;11.768;2023-02-28T13:19:24;3.35;57.77
69543;SHT31;56762;49.494;11.768;2023-02-28T13:21:53;3.38;56.92
69543;SHT31;56762;49.494;11.768;2023-02-28T13:24:41;3.42;57.59
69543;SHT31;56762;49.494;11.768;2023-02-28T13:27:35;3.34;56.82
69543;SHT31;56762;49.494;11.768;2023-02-28T13:33:28;3.21;57.75
69543;SHT31;56762;49.494;11.768;2023-02-28T13:36:09;3.25;57.52
69543;SHT31;56762;49.494;11.768;2023-02-28T13:38:41;3.11;57.00
69543;SHT31;56762;49.494;11.768;2023-02-28T13:41:45;3.11;56.90
69543;SHT31;56762;49.494;11.768;2023-02-28T13:44:15;3.11;57.70
69543;SHT31;56762;49.494;11.768;2023-02-28T13:50:23;3.12;57.41
69543;SHT31;56762;49.494;11.768;2023-02-28T13:52:58;3.18;57.15
69543;SHT31;56762;49.494;11.768;2023-02-28T13:55:31;3.11;57.94
69543;SHT31;56762;49.494;11.768;2023-02-28T13:58:12;3.20;56.56
69543;SHT31;56762;49.494;11.768;2023-02-28T14:01:01;3.15;56.84
69543;SHT31;56762;49.494;11.768;2023-02-28T14:03:41;3.24;56.93
69543;SHT31;56762;49.494;11.768;2023-02-28T14:06:22;3.25;56.54
69543;SHT31;56762;49.494;11.768;2023-02-28T14:08:55;3.30;56.81
69543;SHT31;56762;49.494;11.768;2023-02-28T14:11:27;3.35;56.11
69543;SHT31;56762;49.494;11.768;2023-02-28T14:13:55;3.36;56.70
69543;SHT31;56762;49.494;11.768;2023-02-28T14:16:24;3.43;56.76
69543;SHT31;56762;49.494;11.768;2023-02-28T14:18:56;3.39;56.36
69543;SHT31;56762;49.494;11.768;2023-02-28T14:21:28;3.41;56.06
69543;SHT31;56762;49.494;11.768;2023-02-28T14:27:11;3.38;56.49
69543;SHT31;56762;49.494;11.768;2023-02-28T14:32:47;3.39;56.75
69543;SHT31;56762;49.494;11.768;2023-02-28T14:35:27;3.36;58.01
69543;SHT31;56762;49.494;11.768;2023-02-28T14:37:58;3.34;56.99
69543;SHT31;56762;49.494;11.768;2023-02-28T14:40:28;3.27;57.08
69543;SHT31;56762;49.494;11.768;2023-02-28T14:42:58;3.24;57.98
69543;SHT31;56762;49.494;11.768;2023-02-28T14:45:29;3.14;57.30
69543;SHT31;56762;49.494;11.768;2023-02-28T14:47:58;3.11;57.65
69543;SHT31;56762;49.494;11.768;2023-02-28T14:50:29;3.01;58.47
69543;SHT31;56762;49.494;11.768;2023-02-28T14:53:00;3.08;59.15
69543;SHT31;56762;49.494;11.768;2023-02-28T14:55:30;3.04;58.43
69543;SHT31;56762;49.494;11.768;2023-02-28T14:57:59;3.03;57.51
69543;SHT31;56762;49.494;11.768;2023-02-28T15:00:31;3.03;57.73
69543;SHT31;56762;49.494;11.768;2023-02-28T15:03:18;3.01;59.15
69543;SHT31;56762;49.494;11.768;2023-02-28T15:05:53;3.04;58.60
69543;SHT31;56762;49.494;11.768;2023-02-28T15:08:23;3.08;59.17
69543;SHT31;56762;49.494;11.768;2023-02-28T15:10:58;2.96;59.14
69543;SHT31;56762;49.494;11.768;2023-02-28T15:13:34;2.97;59.37
69543;SHT31;56762;49.494;11.768;2023-02-28T15:16:04;3.00;58.45
69543;SHT31;56762;49.494;11.768;2023-02-28T15:18:42;2.93;58.54
69543;SHT31;56762;49.494;11.768;2023-02-28T15:21:12;2.93;59.05
69543;SHT31;56762;49.494;11.768;2023-02-28T15:23:47;2.89;58.97
69543;SHT31;56762;49.494;11.768;2023-02-28T15:26:20;2.89;58.05
69543;SHT31;56762;49.494;11.768;2023-02-28T15:28:51;2.90;58.89
69543;SHT31;56762;49.494;11.768;2023-02-28T15:31:23;2.79;58.71
69543;SHT31;56762;49.494;11.768;2023-02-28T15:33:54;2.73;59.57
69543;SHT31;56762;49.494;11.768;2023-02-28T15:36:25;2.75;59.62
69543;SHT31;56762;49.494;11.768;2023-02-28T15:38:56;2.69;59.08
69543;SHT31;56762;49.494;11.768;2023-02-28T15:41:41;2.66;59.34
69543;SHT31;56762;49.494;11.768;2023-02-28T15:44:27;2.66;59.08
69543;SHT31;56762;49.494;11.768;2023-02-28T15:47:01;2.59;59.90
69543;SHT31;56762;49.494;11.768;2023-02-28T15:49:39;2.54;59.68
69543;SHT31;56762;49.494;11.768;2023-02-28T15:52:14;2.57;59.38
69543;SHT31;56762;49.494;11.768;2023-02-28T15:54:45;2.54;60.08
69543;SHT31;56762;49.494;11.768;2023-02-28T15:57:15;2.50;60.67
69543;SHT31;56762;49.494;11.768;2023-02-28T15:59:50;2.45;60.31
69543;SHT31;56762;49.494;11.768;2023-02-28T16:02:20;2.46;59.93
69543;SHT31;56762;49.494;11.768;2023-02-28T16:05:13;2.40;60.59
69543;SHT31;56762;49.494;11.768;2023-02-28T16:07:44;2.38;60.72
69543;SHT31;56762;49.494;11.768;2023-02-28T16:10:15;2.35;61.05
69543;SHT31;56762;49.494;11.768;2023-02-28T16:12:43;2.28;61.29
69543;SHT31;56762;49.494;11.768;2023-02-28T16:15:18;2.22;61.85
69543;SHT31;56762;49.494;11.768;2023-02-28T16:17:47;2.21;61.60